Arnold, Nebraska
Current Conditions -  °F | °C
As of 8:07 PM on Thursday 18 Dec 2014 (Local Time) from KBBW Reporting Station
Haze Haze  
Wind Chill: -5°   Ceiling: 600
Heat Index: -2°   Visibility: 5mi
Dew Point: -3°   Wind: 6mph
Humidity: 89%   Direction: 250°WSW
Pressure: 30.11"   Gusts: NA
Location:  41.42°N, 100.19°W
Report Text: KBBW 190207Z AUTO 25005KT 5SM BR OVC006 M02/M03 A3011 RMK AO2 T10171033
Loading
Personal Weather Stations






























Interactive Weather Map New forecast layout! Learn more

10-Day Weather Forecast

Advertisements
Track Severe Weather on mobile